Time;durP1;ratioP1;P1;durP2;ratioP2;P2;SDS_P1;SDS_P2;PMS_P1;PMS_P2;Temp;Humidity;BMP_temperature;BMP_pressure;BME280_temperature;BME280_humidity;BME280_pressure;Samples;Min_cycle;Max_cycle;Signal;HPM_P1;HPM_P2
2022/09/29 00:01:54;;;;;;;6.75;5.55;;;8.00;99.90;;;;;;5051686;28;20338;-65
2022/09/29 00:04:19;;;;;;;7.40;5.90;;;7.90;99.90;;;;;;5051307;28;20037;-65
2022/09/29 00:06:45;;;;;;;5.82;5.00;;;8.00;99.90;;;;;;5033738;28;20072;-65
2022/09/29 00:09:11;;;;;;;5.53;4.90;;;8.00;99.90;;;;;;5051376;28;20712;-66
2022/09/29 00:11:36;;;;;;;6.28;5.10;;;8.00;99.90;;;;;;5050594;28;20036;-66
2022/09/29 00:14:02;;;;;;;9.63;6.07;;;8.00;99.90;;;;;;5051105;28;20058;-65
2022/09/29 00:16:28;;;;;;;6.80;5.30;;;8.00;99.90;;;;;;5051416;28;20067;-65
2022/09/29 00:18:54;;;;;;;6.93;5.63;;;8.00;99.90;;;;;;5050219;28;20106;-66
2022/09/29 00:21:21;;;;;;;7.78;5.93;;;8.00;99.90;;;;;;5051186;28;20493;-67
2022/09/29 00:23:48;;;;;;;9.02;6.03;;;8.00;99.90;;;;;;5051087;28;20032;-66
2022/09/29 00:26:15;;;;;;;6.72;5.60;;;7.90;99.90;;;;;;5051505;28;20095;-66
2022/09/29 00:28:46;;;;;;;6.63;5.93;;;7.90;99.90;;;;;;5054798;28;20462;-67
2022/09/29 00:31:12;;;;;;;9.07;6.43;;;7.90;99.90;;;;;;5055601;28;20037;-66
2022/09/29 00:33:38;;;;;;;6.47;5.70;;;7.80;99.90;;;;;;5054736;28;20339;-66
2022/09/29 00:36:12;;;;;;;7.20;5.68;;;7.80;99.90;;;;;;5054808;28;20041;-66
2022/09/29 00:38:39;;;;;;;7.97;6.95;;;7.80;99.90;;;;;;5054282;28;20064;-66
2022/09/29 00:41:05;;;;;;;7.38;6.20;;;7.80;99.90;;;;;;5053513;28;20098;-66
2022/09/29 00:43:57;;;;;;;7.40;5.97;;;7.80;99.90;;;;;;5054916;28;20068;-66
2022/09/29 00:46:29;;;;;;;7.60;6.63;;;7.80;99.90;;;;;;5053851;28;20125;-66
2022/09/29 00:49:01;;;;;;;6.90;6.20;;;7.80;99.90;;;;;;5054717;28;20044;-66
2022/09/29 00:51:28;;;;;;;7.20;6.50;;;7.80;99.90;;;;;;5053471;28;20083;-66
2022/09/29 00:53:55;;;;;;;8.85;6.82;;;7.80;99.90;;;;;;5053397;28;20319;-66
2022/09/29 00:56:21;;;;;;;8.75;7.07;;;7.70;99.90;;;;;;5053534;28;20073;-67
2022/09/29 00:58:53;;;;;;;7.05;6.35;;;7.70;99.90;;;;;;5054439;28;20075;-66
2022/09/29 01:01:25;;;;;;;11.80;7.43;;;7.70;99.90;;;;;;5054537;28;20708;-66
2022/09/29 01:03:55;;;;;;;7.80;6.35;;;7.60;99.90;;;;;;5054125;28;20037;-67
2022/09/29 01:06:35;;;;;;;8.23;6.18;;;7.60;99.90;;;;;;5054266;28;20041;-66
2022/09/29 01:09:07;;;;;;;9.57;7.05;;;7.70;99.90;;;;;;5054456;28;20087;-67
2022/09/29 01:11:33;;;;;;;8.50;7.05;;;7.60;99.90;;;;;;5054866;28;20143;-67
2022/09/29 01:14:03;;;;;;;9.23;7.18;;;7.60;99.90;;;;;;5054214;28;20462;-66
2022/09/29 01:16:33;;;;;;;9.50;7.38;;;7.60;99.90;;;;;;5054546;28;20041;-67
2022/09/29 01:19:02;;;;;;;7.85;7.03;;;7.60;99.90;;;;;;5053928;28;20059;-66
2022/09/29 01:21:33;;;;;;;8.25;7.28;;;7.60;99.90;;;;;;5052807;28;20571;-67
2022/09/29 01:24:40;;;;;;;8.13;7.25;;;7.50;99.90;;;;;;5053490;28;20044;-67
2022/09/29 01:27:31;;;;;;;9.07;7.18;;;7.50;99.90;;;;;;5053118;28;20049;-67
2022/09/29 01:30:37;;;;;;;9.10;6.82;;;7.50;99.90;;;;;;5053366;28;20108;-67
2022/09/29 01:33:24;;;;;;;7.50;6.57;;;7.50;99.90;;;;;;5052801;28;20056;-67
2022/09/29 01:36:25;;;;;;;9.18;7.53;;;7.40;99.90;;;;;;5054096;28;20099;-67
2022/09/29 01:39:00;;;;;;;8.80;7.72;;;7.40;99.90;;;;;;5041488;28;20394;-67
2022/09/29 01:41:53;;;;;;;8.10;7.30;;;7.40;99.90;;;;;;5052642;28;20044;-66
2022/09/29 01:44:31;;;;;;;7.90;6.80;;;7.40;99.90;;;;;;5053089;28;20454;-65
2022/09/29 01:47:04;;;;;;;7.50;6.70;;;7.40;99.90;;;;;;5053410;28;20055;-65
2022/09/29 01:49:33;;;;;;;8.00;7.10;;;7.30;99.90;;;;;;5053120;28;20032;-65
2022/09/29 01:52:12;;;;;;;9.23;7.00;;;7.30;99.90;;;;;;5053243;28;20045;-66
2022/09/29 01:54:55;;;;;;;8.95;7.00;;;7.30;99.90;;;;;;5054196;28;20133;-66
2022/09/29 01:57:28;;;;;;;9.70;6.97;;;7.30;99.90;;;;;;5053560;28;20041;-65
2022/09/29 02:00:10;;;;;;;8.85;7.80;;;7.30;99.90;;;;;;5053265;28;20048;-66
2022/09/29 02:02:47;;;;;;;9.38;7.25;;;7.30;99.90;;;;;;5053633;28;20472;-66
2022/09/29 02:05:20;;;;;;;9.25;7.57;;;7.20;99.90;;;;;;5041940;28;20047;-66
2022/09/29 02:07:46;;;;;;;9.48;7.85;;;7.20;99.90;;;;;;5053077;28;20458;-65
2022/09/29 02:10:22;;;;;;;8.90;7.63;;;7.20;99.90;;;;;;5051626;28;20033;-67
2022/09/29 02:12:52;;;;;;;8.43;7.22;;;7.20;99.90;;;;;;5051824;28;20037;-67
2022/09/29 02:15:29;;;;;;;8.32;7.38;;;7.20;99.90;;;;;;5053238;28;20090;-66
2022/09/29 02:18:00;;;;;;;8.27;7.10;;;7.20;99.90;;;;;;5053392;28;20033;-66
2022/09/29 02:20:26;;;;;;;9.70;7.15;;;7.20;99.90;;;;;;5039973;28;20094;-66
2022/09/29 02:22:52;;;;;;;11.57;7.28;;;7.20;99.90;;;;;;5053044;28;20363;-67
2022/09/29 02:25:18;;;;;;;7.97;7.07;;;7.20;99.90;;;;;;5052981;28;20040;-67
2022/09/29 02:27:46;;;;;;;7.93;7.10;;;7.10;99.90;;;;;;5053329;28;20041;-67
2022/09/29 02:30:12;;;;;;;7.70;6.93;;;7.00;99.90;;;;;;5052991;28;20047;-67
2022/09/29 02:32:38;;;;;;;8.43;7.53;;;7.00;99.90;;;;;;5052316;28;20036;-66
2022/09/29 02:35:07;;;;;;;7.18;6.40;;;7.00;99.90;;;;;;5052372;28;20044;-66
2022/09/29 02:37:45;;;;;;;7.72;5.97;;;6.90;99.90;;;;;;5050915;28;20128;-66
2022/09/29 02:40:24;;;;;;;8.20;7.40;;;6.90;99.90;;;;;;5052283;28;20068;-66
2022/09/29 02:43:01;;;;;;;9.23;7.07;;;6.90;99.90;;;;;;5051139;28;20355;-66
2022/09/29 02:45:37;;;;;;;6.78;5.65;;;6.90;99.90;;;;;;5053025;28;20342;-66
2022/09/29 02:48:30;;;;;;;6.93;6.22;;;6.90;99.90;;;;;;5052560;28;20037;-67
2022/09/29 02:51:09;;;;;;;7.93;6.55;;;6.90;99.90;;;;;;5052002;28;20060;-67
2022/09/29 02:53:46;;;;;;;7.68;5.93;;;6.90;99.90;;;;;;5051202;28;20106;-66
2022/09/29 02:56:40;;;;;;;7.45;6.63;;;6.90;99.90;;;;;;5052582;28;20047;-66
2022/09/29 02:59:13;;;;;;;7.63;6.88;;;6.90;99.90;;;;;;5052229;28;20045;-66
2022/09/29 03:01:50;;;;;;;9.20;7.68;;;6.80;99.90;;;;;;5052907;28;20131;-66
2022/09/29 03:04:16;;;;;;;7.55;6.53;;;6.80;99.90;;;;;;5052531;28;20033;-66
2022/09/29 03:06:42;;;;;;;8.55;7.43;;;6.80;99.90;;;;;;5052520;28;20096;-66
2022/09/29 03:09:08;;;;;;;8.05;7.22;;;6.70;99.90;;;;;;5052331;28;20441;-66
2022/09/29 03:11:33;;;;;;;7.97;7.18;;;6.80;99.90;;;;;;5051370;28;20040;-66
2022/09/29 03:13:59;;;;;;;7.75;6.95;;;6.70;99.90;;;;;;5052082;28;20370;-66
2022/09/29 03:16:25;;;;;;;8.32;7.30;;;6.80;99.90;;;;;;5052230;28;20359;-66
2022/09/29 03:18:50;;;;;;;7.55;6.75;;;6.70;99.90;;;;;;5052042;28;20032;-65
2022/09/29 03:21:16;;;;;;;8.90;6.93;;;6.70;99.90;;;;;;5052183;28;20437;-66
2022/09/29 03:23:42;;;;;;;8.45;6.82;;;6.70;99.90;;;;;;5050346;28;20099;-66
2022/09/29 03:26:07;;;;;;;8.38;7.45;;;6.70;99.90;;;;;;5051995;28;20037;-66
2022/09/29 03:28:33;;;;;;;8.50;7.38;;;6.70;99.90;;;;;;5050578;28;20091;-66
2022/09/29 03:31:06;;;;;;;9.60;8.13;;;6.60;99.90;;;;;;5051970;28;20033;-65
2022/09/29 03:33:31;;;;;;;8.95;7.50;;;6.60;99.90;;;;;;5051779;28;20040;-66
2022/09/29 03:35:57;;;;;;;8.95;7.50;;;6.60;99.90;;;;;;5051768;28;20119;-66
2022/09/29 03:38:23;;;;;;;8.38;7.47;;;6.50;99.90;;;;;;5050205;28;20156;-66
2022/09/29 03:40:48;;;;;;;8.63;7.75;;;6.50;99.90;;;;;;5051837;28;20041;-67
2022/09/29 03:43:14;;;;;;;7.88;7.10;;;6.50;99.90;;;;;;5051830;28;20316;-66
2022/09/29 03:45:51;;;;;;;7.82;7.03;;;6.40;99.90;;;;;;5051850;28;20045;-65
2022/09/29 03:48:17;;;;;;;8.50;6.78;;;6.50;99.90;;;;;;5050345;28;20098;-66
2022/09/29 03:50:47;;;;;;;8.95;6.90;;;6.50;99.90;;;;;;5051573;28;20326;-66
2022/09/29 03:53:13;;;;;;;8.38;7.20;;;6.50;99.90;;;;;;5053388;28;20124;-66
2022/09/29 03:55:39;;;;;;;8.50;7.60;;;6.40;99.90;;;;;;5050455;28;20152;-66
2022/09/29 03:58:05;;;;;;;9.23;8.10;;;6.40;99.90;;;;;;5050287;28;20175;-65
2022/09/29 04:00:31;;;;;;;8.70;7.80;;;6.40;99.90;;;;;;5051561;28;20124;-65
2022/09/29 04:02:56;;;;;;;9.65;8.75;;;6.50;99.90;;;;;;5051225;28;20041;-65
2022/09/29 04:05:22;;;;;;;10.00;9.00;;;6.50;99.90;;;;;;5051129;28;20055;-66
2022/09/29 04:07:48;;;;;;;10.43;8.55;;;6.40;99.90;;;;;;5051477;28;20068;-66
2022/09/29 04:10:13;;;;;;;7.80;7.00;;;6.40;99.90;;;;;;5051469;28;20453;-66
2022/09/29 04:12:39;;;;;;;7.30;6.47;;;6.40;99.90;;;;;;5051336;28;20503;-66
2022/09/29 04:15:05;;;;;;;8.77;7.63;;;6.40;99.90;;;;;;5050183;28;20107;-66
2022/09/29 04:17:31;;;;;;;6.35;5.43;;;6.40;99.90;;;;;;5051595;28;20044;-66
2022/09/29 04:19:57;;;;;;;7.95;6.55;;;6.30;99.90;;;;;;5049956;28;20334;-66
2022/09/29 04:22:22;;;;;;;6.63;5.85;;;6.30;99.90;;;;;;5051035;28;20033;-66
2022/09/29 04:24:49;;;;;;;7.90;6.20;;;6.30;99.90;;;;;;5051366;28;20393;-66
2022/09/29 04:27:15;;;;;;;11.05;5.97;;;6.20;99.90;;;;;;5050045;28;20076;-66
2022/09/29 04:29:41;;;;;;;12.88;5.55;;;6.10;99.90;;;;;;5050974;28;20094;-68
2022/09/29 04:32:07;;;;;;;14.95;5.88;;;6.10;99.90;;;;;;5066555;28;20045;-66
2022/09/29 04:34:33;;;;;;;11.82;5.93;;;6.00;99.90;;;;;;5033543;28;20073;-66
2022/09/29 04:36:59;;;;;;;8.90;5.97;;;6.00;99.90;;;;;;5049886;28;20096;-66
2022/09/29 04:39:25;;;;;;;12.25;6.05;;;5.90;99.90;;;;;;5051036;28;20049;-66
2022/09/29 04:41:51;;;;;;;6.90;5.88;;;5.90;99.90;;;;;;5050531;28;20159;-66
2022/09/29 04:44:19;;;;;;;6.05;5.03;;;5.80;99.90;;;;;;5050727;28;20589;-67
2022/09/29 04:46:44;;;;;;;6.45;5.50;;;5.80;99.90;;;;;;5049457;28;20048;-66
2022/09/29 04:49:10;;;;;;;6.05;5.30;;;5.80;99.90;;;;;;5050209;28;20303;-66
2022/09/29 04:51:35;;;;;;;7.90;5.78;;;5.80;99.90;;;;;;5049341;28;20045;-66
2022/09/29 04:54:01;;;;;;;19.77;6.35;;;5.90;99.90;;;;;;5050333;28;20037;-66
2022/09/29 04:56:30;;;;;;;11.50;6.45;;;5.90;99.90;;;;;;5048969;28;20033;-65
2022/09/29 04:58:57;;;;;;;11.45;6.05;;;5.80;99.90;;;;;;5049894;28;20092;-66
2022/09/29 05:01:23;;;;;;;23.17;6.60;;;5.80;99.90;;;;;;5048165;28;20402;-66
2022/09/29 05:03:48;;;;;;;25.38;6.88;;;5.70;99.90;;;;;;5049417;28;20041;-66
2022/09/29 05:06:14;;;;;;;32.78;6.60;;;5.60;99.90;;;;;;5050138;28;20040;-66
2022/09/29 05:08:40;;;;;;;13.98;6.63;;;5.60;99.90;;;;;;5049204;28;20243;-66
2022/09/29 05:11:07;;;;;;;15.82;6.72;;;5.60;99.90;;;;;;5050037;28;20147;-66
2022/09/29 05:13:33;;;;;;;18.45;7.28;;;5.60;99.90;;;;;;5050697;28;20040;-66
2022/09/29 05:15:59;;;;;;;15.48;6.55;;;5.60;99.90;;;;;;5052511;28;20150;-66
2022/09/29 05:18:26;;;;;;;7.97;6.05;;;5.60;99.90;;;;;;5052854;28;20041;-66
2022/09/29 05:20:52;;;;;;;8.65;6.68;;;5.60;99.90;;;;;;5053097;28;20129;-65
2022/09/29 05:23:17;;;;;;;10.27;6.93;;;5.70;99.90;;;;;;5052607;28;20426;-65
2022/09/29 05:25:43;;;;;;;14.30;6.93;;;5.60;99.90;;;;;;5053496;28;20056;-65
2022/09/29 05:28:09;;;;;;;26.25;6.80;;;5.60;99.90;;;;;;5052329;28;20528;-65
2022/09/29 05:30:36;;;;;;;17.25;6.15;;;5.60;99.90;;;;;;5053712;28;20048;-66
2022/09/29 05:33:02;;;;;;;14.77;6.35;;;5.60;99.90;;;;;;5053505;28;20542;-65
2022/09/29 05:35:27;;;;;;;12.32;6.53;;;5.50;99.90;;;;;;5053734;28;20148;-66
2022/09/29 05:37:53;;;;;;;12.73;5.95;;;5.50;99.90;;;;;;5068901;28;20049;-66
2022/09/29 05:40:22;;;;;;;10.50;5.70;;;5.40;99.90;;;;;;5053326;28;20068;-67
2022/09/29 05:42:48;;;;;;;9.57;6.32;;;5.40;99.90;;;;;;5052875;28;20108;-65
2022/09/29 05:45:14;;;;;;;7.15;5.70;;;5.40;99.90;;;;;;5052771;28;20120;-66
2022/09/29 05:47:44;;;;;;;6.88;6.18;;;5.40;99.90;;;;;;5052171;28;20049;-66
2022/09/29 05:50:10;;;;;;;7.60;6.90;;;5.40;99.90;;;;;;5053063;28;20342;-68
2022/09/29 05:52:37;;;;;;;6.88;6.18;;;5.40;99.90;;;;;;5053506;28;20037;-67
2022/09/29 05:55:03;;;;;;;7.65;6.60;;;5.40;99.90;;;;;;5052692;28;20406;-68
2022/09/29 05:57:29;;;;;;;7.60;6.85;;;5.40;99.90;;;;;;5032307;28;20049;-67
2022/09/29 05:59:57;;;;;;;7.38;6.68;;;5.40;99.90;;;;;;5051812;28;20044;-67
2022/09/29 06:02:22;;;;;;;10.05;9.05;;;5.40;99.90;;;;;;5036031;28;20068;-66
2022/09/29 06:04:48;;;;;;;10.77;9.68;;;5.40;99.90;;;;;;5052247;28;20061;-65
2022/09/29 06:07:14;;;;;;;9.32;8.32;;;5.40;99.90;;;;;;5050434;28;20028;-67
2022/09/29 06:09:40;;;;;;;10.20;9.15;;;5.40;99.90;;;;;;5051920;28;20132;-66
2022/09/29 06:12:05;;;;;;;16.88;8.50;;;5.50;99.90;;;;;;5053481;28;20033;-66
2022/09/29 06:14:31;;;;;;;16.63;8.10;;;5.50;99.90;;;;;;5053310;28;20071;-67
2022/09/29 06:16:57;;;;;;;10.27;9.13;;;5.60;99.90;;;;;;5034436;28;20377;-65
2022/09/29 06:19:22;;;;;;;11.02;7.95;;;5.70;99.90;;;;;;5052107;28;20402;-66
2022/09/29 06:21:48;;;;;;;9.82;8.13;;;5.80;99.90;;;;;;5053121;28;20041;-65
2022/09/29 06:24:14;;;;;;;8.85;7.95;;;6.10;99.90;;;;;;5051170;28;20497;-65
2022/09/29 06:26:39;;;;;;;7.28;6.57;;;6.30;99.90;;;;;;5052776;28;20085;-65
2022/09/29 06:29:05;;;;;;;8.07;7.20;;;6.50;99.90;;;;;;5052939;28;20044;-65
2022/09/29 06:31:31;;;;;;;7.93;7.13;;;6.60;99.90;;;;;;5053051;28;20343;-64
2022/09/29 06:33:59;;;;;;;8.75;7.45;;;6.60;99.90;;;;;;5051904;28;20037;-64
2022/09/29 06:39:27;;;;;;;8.43;7.57;;;6.80;99.90;;;;;;5051647;28;20045;-65
2022/09/29 06:41:56;;;;;;;8.77;7.05;;;6.90;99.90;;;;;;5051365;28;20055;-64
2022/09/29 06:44:26;;;;;;;8.13;7.32;;;7.00;99.90;;;;;;5050916;28;20059;-64
2022/09/29 06:46:53;;;;;;;7.50;6.80;;;7.10;99.90;;;;;;5051390;28;20068;-64
2022/09/29 06:49:19;;;;;;;9.00;7.05;;;7.20;99.90;;;;;;5033782;28;20072;-66
2022/09/29 06:51:45;;;;;;;8.27;6.90;;;7.30;99.90;;;;;;5052113;28;20416;-65
2022/09/29 06:54:15;;;;;;;7.43;6.72;;;7.40;99.90;;;;;;5049448;28;20120;-66
2022/09/29 06:56:41;;;;;;;8.40;7.53;;;7.50;99.90;;;;;;5051306;28;20474;-65
2022/09/29 06:59:07;;;;;;;8.18;7.10;;;7.60;99.90;;;;;;5052481;28;20073;-65
2022/09/29 07:01:33;;;;;;;9.90;8.13;;;7.70;99.90;;;;;;5052028;28;20076;-65
2022/09/29 07:04:01;;;;;;;9.88;8.57;;;7.90;99.90;;;;;;5051132;28;20430;-66
2022/09/29 07:06:28;;;;;;;10.05;7.30;;;7.90;99.90;;;;;;5050936;28;20326;-66
2022/09/29 07:08:54;;;;;;;8.80;7.88;;;8.00;99.90;;;;;;5051507;28;20131;-64
2022/09/29 07:11:20;;;;;;;7.95;7.15;;;8.10;99.90;;;;;;5050699;28;20040;-66
2022/09/29 07:13:45;;;;;;;8.57;7.55;;;8.30;99.90;;;;;;5052353;28;20037;-66
2022/09/29 07:16:12;;;;;;;8.15;7.35;;;8.40;99.90;;;;;;5052185;28;20524;-66
2022/09/29 07:18:41;;;;;;;8.52;7.40;;;8.50;99.90;;;;;;5050552;28;20157;-64
2022/09/29 07:21:10;;;;;;;9.13;8.05;;;8.50;99.90;;;;;;5051681;28;20033;-64
2022/09/29 07:23:36;;;;;;;8.35;7.50;;;8.60;99.90;;;;;;5051457;28;20040;-65
2022/09/29 07:26:03;;;;;;;8.45;7.63;;;8.70;99.90;;;;;;5049822;28;20074;-65
2022/09/29 07:28:29;;;;;;;8.95;8.05;;;8.70;99.90;;;;;;5039294;28;20044;-65
2022/09/29 07:31:03;;;;;;;8.93;7.65;;;8.90;99.90;;;;;;5051923;28;20047;-65
2022/09/29 07:33:31;;;;;;;8.38;7.57;;;9.10;99.90;;;;;;5052137;28;20048;-65
2022/09/29 07:35:59;;;;;;;7.78;6.97;;;9.20;99.90;;;;;;5050206;28;20033;-64
2022/09/29 07:38:25;;;;;;;9.60;8.57;;;9.30;99.90;;;;;;5050937;28;20420;-64
2022/09/29 07:40:51;;;;;;;10.93;9.15;;;9.50;99.90;;;;;;5051694;28;20045;-64
2022/09/29 07:43:17;;;;;;;10.10;8.93;;;9.60;99.90;;;;;;5051881;28;20485;-64
2022/09/29 07:45:50;;;;;;;9.40;7.97;;;9.70;99.90;;;;;;5051792;28;20377;-66
2022/09/29 07:48:16;;;;;;;10.20;8.05;;;9.90;99.90;;;;;;5049964;28;20468;-65
2022/09/29 07:50:43;;;;;;;9.32;7.95;;;9.90;99.90;;;;;;5051863;28;20045;-65
2022/09/29 07:53:09;;;;;;;9.43;7.68;;;10.00;99.90;;;;;;5051032;28;20048;-65
2022/09/29 07:55:35;;;;;;;10.35;8.20;;;10.10;99.90;;;;;;5051385;28;20056;-64
2022/09/29 07:58:01;;;;;;;10.45;9.15;;;10.20;99.90;;;;;;5051156;28;20033;-66
2022/09/29 08:00:30;;;;;;;10.52;8.55;;;10.30;99.90;;;;;;5051056;28;20044;-65
2022/09/29 08:03:01;;;;;;;12.55;10.32;;;10.40;99.90;;;;;;5051393;28;20185;-65
2022/09/29 08:05:28;;;;;;;14.25;11.23;;;10.50;99.90;;;;;;5051495;28;20072;-65
2022/09/29 08:07:53;;;;;;;12.82;10.43;;;10.60;99.90;;;;;;5050847;28;20041;-65
2022/09/29 08:10:20;;;;;;;12.00;10.10;;;10.60;99.90;;;;;;5050747;28;20432;-65
2022/09/29 08:12:45;;;;;;;12.50;10.85;;;10.50;99.90;;;;;;5051178;28;20489;-65
2022/09/29 08:15:11;;;;;;;13.25;10.95;;;10.50;99.90;;;;;;5050253;28;20068;-66
2022/09/29 08:17:36;;;;;;;11.10;10.00;;;10.50;99.90;;;;;;5051026;28;20513;-66
2022/09/29 08:20:02;;;;;;;11.85;10.23;;;10.50;99.90;;;;;;5051043;28;20092;-65
2022/09/29 08:22:28;;;;;;;12.38;11.07;;;10.70;99.90;;;;;;5051123;28;20662;-65
2022/09/29 08:24:53;;;;;;;15.23;11.35;;;10.80;99.90;;;;;;5051126;28;20099;-65
2022/09/29 08:27:19;;;;;;;13.75;11.30;;;10.80;99.90;;;;;;5050973;28;20037;-64
2022/09/29 08:29:44;;;;;;;12.20;10.82;;;10.80;99.90;;;;;;5051096;28;20091;-64
2022/09/29 08:32:10;;;;;;;12.95;11.25;;;10.80;99.90;;;;;;5051410;28;20037;-65
2022/09/29 08:34:35;;;;;;;13.32;10.73;;;10.80;99.90;;;;;;5051544;28;20116;-65
2022/09/29 08:37:01;;;;;;;12.27;10.27;;;11.00;99.90;;;;;;5050560;28;20049;-65
2022/09/29 08:39:27;;;;;;;13.23;11.13;;;11.10;99.90;;;;;;5050920;28;20418;-65
2022/09/29 08:42:18;;;;;;;12.60;10.93;;;11.20;99.90;;;;;;5050146;28;20490;-64
2022/09/29 08:45:00;;;;;;;11.95;9.75;;;11.30;99.90;;;;;;5036535;28;20476;-65
2022/09/29 08:47:38;;;;;;;11.02;9.82;;;11.60;99.90;;;;;;5050900;28;20083;-64
2022/09/29 08:50:27;;;;;;;13.20;10.68;;;11.80;99.90;;;;;;5054708;28;20462;-65
2022/09/29 08:52:57;;;;;;;12.63;10.38;;;11.80;99.90;;;;;;5053233;28;20029;-64
2022/09/29 08:55:49;;;;;;;11.98;10.20;;;12.00;99.90;;;;;;5053826;28;20681;-63
2022/09/29 08:58:16;;;;;;;10.63;9.30;;;12.20;99.90;;;;;;5048182;28;20582;-65
2022/09/29 09:00:43;;;;;;;11.40;9.68;;;12.30;99.90;;;;;;5053062;28;20037;-64
2022/09/29 09:03:17;;;;;;;11.40;9.55;;;12.40;99.90;;;;;;5054754;28;20033;-64
2022/09/29 09:06:20;;;;;;;11.73;10.52;;;12.40;99.90;;;;;;5054758;28;20048;-64
2022/09/29 09:09:24;;;;;;;10.43;9.43;;;12.50;99.90;;;;;;5042938;28;20059;-65
2022/09/29 09:12:21;;;;;;;10.05;8.80;;;12.40;99.90;;;;;;5053020;28;20515;-64
2022/09/29 09:15:17;;;;;;;9.77;8.77;;;12.30;99.90;;;;;;5054265;28;20076;-64
2022/09/29 09:17:58;;;;;;;11.63;8.55;;;12.30;99.90;;;;;;5053876;28;20051;-64
2022/09/29 09:20:33;;;;;;;10.73;9.60;;;12.50;99.90;;;;;;5046913;28;20071;-63
2022/09/29 09:23:06;;;;;;;10.65;8.75;;;12.60;99.90;;;;;;5054043;28;20048;-64
2022/09/29 09:25:34;;;;;;;12.82;10.13;;;12.80;99.90;;;;;;5045171;28;20079;-65
2022/09/29 09:28:03;;;;;;;10.40;9.27;;;13.00;99.90;;;;;;5053654;28;20613;-64
2022/09/29 09:30:36;;;;;;;11.07;9.38;;;12.90;99.90;;;;;;5053971;28;20052;-64
2022/09/29 09:33:07;;;;;;;10.87;9.77;;;12.80;99.90;;;;;;5054422;28;20029;-64
2022/09/29 09:35:52;;;;;;;11.43;10.25;;;12.70;99.90;;;;;;5053826;28;20078;-64
2022/09/29 09:38:24;;;;;;;10.65;9.55;;;12.60;99.90;;;;;;5052978;28;20045;-64
2022/09/29 09:40:54;;;;;;;11.68;9.65;;;12.50;99.90;;;;;;5050358;28;20033;-63
2022/09/29 09:43:39;;;;;;;9.75;8.75;;;12.50;99.90;;;;;;5053841;28;20055;-64
2022/09/29 09:46:26;;;;;;;9.73;8.73;;;12.70;99.90;;;;;;5053978;28;20044;-64
2022/09/29 09:49:18;;;;;;;10.10;8.50;;;12.90;99.90;;;;;;5053762;28;20175;-65
2022/09/29 09:51:59;;;;;;;9.45;8.02;;;13.10;99.90;;;;;;5041927;28;20041;-64
2022/09/29 09:54:39;;;;;;;8.93;6.30;;;13.20;99.90;;;;;;5053689;28;20053;-64
2022/09/29 09:57:40;;;;;;;6.95;5.57;;;13.20;99.90;;;;;;5053336;28;20563;-64
2022/09/29 10:00:14;;;;;;;6.90;5.90;;;13.20;99.90;;;;;;5048763;28;20044;-64
2022/09/29 10:02:45;;;;;;;7.55;5.47;;;13.30;99.90;;;;;;5047699;28;20045;-63
2022/09/29 10:05:14;;;;;;;6.57;5.88;;;13.30;99.90;;;;;;5053788;28;20120;-64
2022/09/29 10:07:39;;;;;;;7.43;5.47;;;13.20;99.90;;;;;;5052989;28;20461;-63
2022/09/29 10:10:17;;;;;;;6.10;5.32;;;13.20;99.90;;;;;;5052517;28;20121;-63
2022/09/29 10:12:44;;;;;;;6.75;5.68;;;13.30;99.90;;;;;;5053141;28;20097;-64
2022/09/29 10:15:50;;;;;;;6.75;4.90;;;13.50;99.90;;;;;;5052797;28;20451;-63
2022/09/29 10:18:37;;;;;;;7.50;5.13;;;13.50;99.90;;;;;;5049186;28;20029;-63
2022/09/29 10:21:03;;;;;;;9.18;6.07;;;13.50;99.90;;;;;;5053678;28;20041;-63
2022/09/29 10:23:34;;;;;;;7.18;5.90;;;13.50;99.90;;;;;;5053093;28;20039;-64
2022/09/29 10:26:16;;;;;;;5.72;5.13;;;13.60;99.90;;;;;;5052990;28;20044;-64
2022/09/29 10:28:44;;;;;;;5.68;4.95;;;13.80;99.90;;;;;;5052581;28;20469;-65
2022/09/29 10:31:19;;;;;;;7.15;5.85;;;13.90;99.90;;;;;;5053145;28;20434;-64
2022/09/29 10:33:50;;;;;;;6.10;4.38;;;13.90;99.90;;;;;;5053096;28;20462;-64
2022/09/29 10:36:19;;;;;;;6.93;5.28;;;13.90;99.90;;;;;;5052774;28;20048;-63
2022/09/29 10:38:46;;;;;;;6.45;4.95;;;13.90;99.90;;;;;;5052207;28;20374;-63
2022/09/29 10:41:12;;;;;;;5.97;4.40;;;14.00;99.90;;;;;;5052847;28;20043;-64
2022/09/29 10:43:42;;;;;;;6.43;3.80;;;14.10;99.90;;;;;;5052888;28;20041;-63
2022/09/29 10:46:35;;;;;;;7.22;4.65;;;14.20;99.90;;;;;;5052870;28;20040;-64
2022/09/29 10:49:19;;;;;;;7.35;5.40;;;14.30;99.90;;;;;;5042836;28;20053;-64
2022/09/29 10:51:53;;;;;;;6.88;3.85;;;14.20;99.90;;;;;;5048394;28;20046;-64
2022/09/29 10:54:24;;;;;;;4.38;3.45;;;14.10;99.90;;;;;;5052526;28;20378;-64
2022/09/29 10:56:50;;;;;;;6.95;4.57;;;14.00;99.90;;;;;;5051677;28;20041;-64
2022/09/29 10:59:18;;;;;;;6.25;4.22;;;14.10;99.90;;;;;;5051918;28;20422;-64
2022/09/29 11:02:04;;;;;;;8.05;4.45;;;14.30;99.90;;;;;;5052173;28;20044;-64
2022/09/29 11:04:35;;;;;;;4.32;2.97;;;14.40;99.90;;;;;;5046828;28;20083;-63
2022/09/29 11:07:09;;;;;;;4.15;3.00;;;14.60;99.90;;;;;;5051790;28;20114;-65
2022/09/29 11:09:42;;;;;;;9.57;4.35;;;14.60;99.90;;;;;;5052308;28;20135;-63
2022/09/29 11:12:27;;;;;;;6.45;4.40;;;14.60;99.90;;;;;;5051926;28;20128;-64
2022/09/29 11:14:53;;;;;;;7.55;5.00;;;14.50;99.90;;;;;;5052173;28;20095;-64
2022/09/29 11:17:31;;;;;;;5.95;4.57;;;14.50;99.90;;;;;;5051905;28;20037;-64
2022/09/29 11:20:03;;;;;;;6.47;5.35;;;14.60;99.90;;;;;;5050397;28;20041;-63
2022/09/29 11:23:07;;;;;;;6.38;4.72;;;14.70;99.90;;;;;;5051839;28;20063;-64
2022/09/29 11:25:44;;;;;;;9.07;5.53;;;14.60;99.90;;;;;;5049349;28;20060;-62
2022/09/29 11:28:40;;;;;;;6.75;5.63;;;14.50;99.90;;;;;;5050348;28;20359;-62
2022/09/29 11:31:13;;;;;;;5.55;4.63;;;14.50;99.90;;;;;;5050802;28;20048;-64
2022/09/29 11:33:56;;;;;;;6.18;5.00;;;14.70;99.90;;;;;;5045235;28;20144;-63
2022/09/29 11:36:51;;;;;;;5.72;4.50;;;14.90;99.90;;;;;;5046281;28;20041;-64
2022/09/29 11:39:29;;;;;;;6.50;5.18;;;14.80;99.90;;;;;;5051402;28;20091;-64
2022/09/29 11:42:08;;;;;;;7.53;5.10;;;14.80;99.90;;;;;;5051959;28;20098;-64
2022/09/29 11:45:01;;;;;;;5.50;4.47;;;14.80;99.90;;;;;;5051927;28;20079;-64
2022/09/29 11:47:42;;;;;;;7.00;5.35;;;15.10;99.90;;;;;;5046032;28;20033;-64
2022/09/29 11:50:28;;;;;;;9.40;7.75;;;15.20;99.90;;;;;;5050319;28;20091;-64
2022/09/29 11:53:31;;;;;;;7.35;5.60;;;15.20;99.90;;;;;;5050582;28;20595;-65
2022/09/29 11:56:22;;;;;;;6.35;4.78;;;15.30;99.90;;;;;;5050047;28;20048;-64
2022/09/29 11:59:07;;;;;;;7.20;6.00;;;15.20;99.90;;;;;;5048993;28;20033;-63
2022/09/29 12:01:48;;;;;;;7.10;6.00;;;15.10;99.90;;;;;;5049979;28;20029;-64
2022/09/29 12:04:56;;;;;;;7.25;4.93;;;15.10;99.90;;;;;;5051273;28;20052;-64
2022/09/29 12:07:56;;;;;;;5.93;4.78;;;15.10;99.90;;;;;;5048833;28;20044;-64
2022/09/29 12:11:06;;;;;;;7.85;5.30;;;15.20;99.90;;;;;;5064713;28;20048;-63
2022/09/29 12:14:13;;;;;;;8.15;5.45;;;15.30;99.90;;;;;;5033366;28;20382;-64
2022/09/29 12:16:51;;;;;;;6.65;5.93;;;15.40;99.90;;;;;;5043814;28;20186;-64
2022/09/29 12:19:20;;;;;;;8.75;5.97;;;15.50;99.90;;;;;;5041446;28;20364;-64
2022/09/29 12:21:51;;;;;;;8.07;6.07;;;15.40;99.90;;;;;;5051382;28;20029;-64
2022/09/29 12:24:28;;;;;;;6.65;5.63;;;15.30;99.90;;;;;;5044798;28;20121;-63
2022/09/29 12:26:55;;;;;;;7.18;5.88;;;15.20;99.90;;;;;;5055097;28;20041;-64
2022/09/29 12:29:29;;;;;;;6.70;5.10;;;15.20;99.90;;;;;;5054974;28;20073;-64
2022/09/29 12:31:57;;;;;;;7.07;5.70;;;15.20;99.90;;;;;;5054227;28;20052;-65
2022/09/29 12:34:45;;;;;;;6.28;4.80;;;15.20;99.90;;;;;;5054285;28;20032;-64
2022/09/29 12:37:33;;;;;;;6.32;4.10;;;15.20;99.90;;;;;;5053179;28;20056;-65
2022/09/29 12:40:36;;;;;;;5.40;4.13;;;15.30;99.90;;;;;;5053986;28;20111;-65
2022/09/29 12:43:31;;;;;;;4.78;3.75;;;15.50;99.90;;;;;;5055190;28;20041;-64
2022/09/29 12:46:25;;;;;;;6.13;4.10;;;15.50;99.90;;;;;;5055023;28;20048;-64
2022/09/29 12:49:01;;;;;;;5.00;3.15;;;15.60;99.90;;;;;;5052046;28;20060;-64
2022/09/29 12:51:43;;;;;;;5.05;3.60;;;15.50;99.90;;;;;;5053896;28;20033;-64
2022/09/29 12:54:30;;;;;;;9.73;4.10;;;15.30;99.90;;;;;;5054763;28;20440;-63
2022/09/29 12:57:18;;;;;;;6.80;3.95;;;15.10;99.90;;;;;;5042853;28;20468;-63
2022/09/29 13:00:04;;;;;;;6.65;3.78;;;15.20;99.90;;;;;;5054619;28;20037;-63
2022/09/29 13:03:05;;;;;;;6.80;3.55;;;15.30;99.90;;;;;;5054704;28;20045;-64
2022/09/29 13:05:37;;;;;;;5.40;3.97;;;15.30;99.90;;;;;;5044282;28;20116;-65
2022/09/29 13:08:33;;;;;;;7.50;4.57;;;15.10;99.90;;;;;;5054188;28;20072;-63
2022/09/29 13:11:24;;;;;;;7.22;4.40;;;14.90;99.90;;;;;;5047067;28;20413;-64
2022/09/29 13:14:20;;;;;;;6.28;4.35;;;14.80;99.90;;;;;;5042421;28;20083;-64
2022/09/29 13:17:04;;;;;;;5.15;3.95;;;14.80;99.90;;;;;;5053753;28;20123;-64
2022/09/29 13:19:40;;;;;;;5.55;3.88;;;14.80;99.90;;;;;;5054130;28;20446;-64
2022/09/29 13:22:42;;;;;;;5.13;3.70;;;15.00;99.90;;;;;;5039312;28;20363;-64
2022/09/29 13:25:35;;;;;;;5.88;4.15;;;15.10;99.90;;;;;;5054573;28;20037;-64